Time;durP1;ratioP1;P1;durP2;ratioP2;P2;SDS_P1;SDS_P2;PMS_P1;PMS_P2;Temp;Humidity;BMP_temperature;BMP_pressure;BME280_temperature;BME280_humidity;BME280_pressure;Samples;Min_cycle;Max_cycle;Signal;HPM_P1;HPM_P2
2021/12/16 00:07:14;;;;;;;6.50;3.43;;;;;;;;;;5053974;28;20448;-73
2021/12/16 00:09:51;;;;;;;6.90;4.10;;;;;;;;;;5054175;28;20463;-72
2021/12/16 00:31:50;;;;;;;8.10;4.30;;;;;;;;;;5054686;28;20581;-73
2021/12/16 00:34:18;;;;;;;11.20;5.27;;;;;;;;;;5054403;28;20527;-73
2021/12/16 00:36:46;;;;;;;10.80;4.80;;;;;;;;;;5054484;28;20515;-73
2021/12/16 00:39:15;;;;;;;7.23;4.40;;;;;;;;;;5054956;28;20553;-73
2021/12/16 00:41:46;;;;;;;11.10;5.07;;;;;;;;;;5053765;28;20472;-72
2021/12/16 00:44:23;;;;;;;11.33;4.70;;;;;;;;;;5055800;28;20466;-73
2021/12/16 00:47:00;;;;;;;7.00;5.27;;;;;;;;;;5057938;28;20556;-73
2021/12/16 00:49:41;;;;;;;10.43;5.37;;;;;;;;;;5057298;28;20460;-72
2021/12/16 00:55:03;;;;;;;8.20;4.63;;;;;;;;;;5057176;28;20444;-73
2021/12/16 00:57:31;;;;;;;5.70;3.70;;;;;;;;;;5058033;28;20896;-73
2021/12/16 01:00:03;;;;;;;11.43;4.93;;;;;;;;;;5056414;28;21017;-73
2021/12/16 01:02:53;;;;;;;9.13;4.10;;;;;;;;;;5057445;28;20469;-73
2021/12/16 01:08:24;;;;;;;8.93;5.40;;;;;;;;;;5049981;28;20877;-73
2021/12/16 01:35:57;;;;;;;8.90;5.40;;;;;;;;;;5057426;28;20436;-72
2021/12/16 01:47:15;;;;;;;13.10;5.97;;;;;;;;;;5017937;28;20482;-72
2021/12/16 01:49:53;;;;;;;10.10;6.30;;;;;;;;;;5056449;28;20457;-73
2021/12/16 01:52:46;;;;;;;13.17;6.33;;;;;;;;;;5056939;28;20493;-73
2021/12/16 01:55:20;;;;;;;16.93;6.57;;;;;;;;;;5055604;28;20458;-72
2021/12/16 01:57:51;;;;;;;12.30;6.70;;;;;;;;;;5057043;28;20562;-72
2021/12/16 02:00:26;;;;;;;16.43;5.83;;;;;;;;;;5056507;28;20542;-73
2021/12/16 02:03:00;;;;;;;6.97;5.50;;;;;;;;;;5055580;28;20469;-73
2021/12/16 02:05:55;;;;;;;6.27;4.17;;;;;;;;;;5055277;28;20449;-72
2021/12/16 02:08:27;;;;;;;12.27;6.03;;;;;;;;;;5056331;28;20465;-74
2021/12/16 02:27:19;;;;;;;16.10;5.83;;;;;;;;;;5049405;28;20517;-73
2021/12/16 02:27:51;;;;;;;11.10;5.80;;;;;;;;;;5056040;28;20548;-72
2021/12/16 02:33:20;;;;;;;10.30;6.17;;;;;;;;;;5034425;28;20728;-73
2021/12/16 02:35:59;;;;;;;14.60;5.80;;;;;;;;;;5056331;28;20461;-73
2021/12/16 02:38:31;;;;;;;11.73;6.83;;;;;;;;;;5055381;28;20461;-73
2021/12/16 02:41:00;;;;;;;11.77;6.60;;;;;;;;;;5055769;28;20499;-73
2021/12/16 02:43:54;;;;;;;13.03;6.27;;;;;;;;;;5055940;28;20466;-72
2021/12/16 02:49:07;;;;;;;10.30;7.23;;;;;;;;;;5055035;28;20440;-73
2021/12/16 02:51:35;;;;;;;18.00;6.93;;;;;;;;;;5056335;28;20485;-73
2021/12/16 02:54:06;;;;;;;12.17;5.17;;;;;;;;;;5055872;28;20798;-73
2021/12/16 02:56:34;;;;;;;15.40;6.67;;;;;;;;;;5055826;28;20453;-73
2021/12/16 02:59:02;;;;;;;13.00;6.23;;;;;;;;;;5056799;28;20682;-73
2021/12/16 03:01:31;;;;;;;12.13;6.57;;;;;;;;;;5054879;28;20461;-73
2021/12/16 03:03:59;;;;;;;12.23;5.93;;;;;;;;;;5055523;28;20994;-73
2021/12/16 03:06:29;;;;;;;9.03;5.80;;;;;;;;;;5055733;28;20497;-73
2021/12/16 03:08:58;;;;;;;11.90;8.13;;;;;;;;;;5055407;28;20912;-73
2021/12/16 03:11:36;;;;;;;11.80;6.20;;;;;;;;;;5055440;28;20492;-72
2021/12/16 03:14:21;;;;;;;13.60;7.07;;;;;;;;;;5055876;28;20465;-73
2021/12/16 03:17:06;;;;;;;9.77;6.27;;;;;;;;;;5054575;28;20526;-73
2021/12/16 03:19:46;;;;;;;16.90;6.63;;;;;;;;;;5055414;28;20481;-73
2021/12/16 03:22:26;;;;;;;18.37;6.80;;;;;;;;;;5055512;28;20973;-73
2021/12/16 03:25:12;;;;;;;14.10;7.63;;;;;;;;;;5055573;28;20555;-73
2021/12/16 03:28:16;;;;;;;13.90;7.20;;;;;;;;;;5054867;28;20449;-73
2021/12/16 03:33:53;;;;;;;10.77;6.67;;;;;;;;;;5035517;28;20545;-72
2021/12/16 03:36:31;;;;;;;13.53;7.10;;;;;;;;;;5054411;28;20751;-72
2021/12/16 03:39:00;;;;;;;12.67;6.00;;;;;;;;;;5055349;28;20532;-73
2021/12/16 03:41:28;;;;;;;10.40;6.83;;;;;;;;;;5054199;28;20491;-73
2021/12/16 03:43:59;;;;;;;10.80;6.77;;;;;;;;;;5055008;28;20535;-73
2021/12/16 03:46:29;;;;;;;15.73;8.37;;;;;;;;;;5054733;28;20449;-73
2021/12/16 03:48:59;;;;;;;13.10;8.97;;;;;;;;;;5053847;28;20777;-73
2021/12/16 03:51:28;;;;;;;11.93;7.00;;;;;;;;;;5055377;28;20490;-73
2021/12/16 03:54:00;;;;;;;12.83;6.63;;;;;;;;;;5054375;28;20453;-73
2021/12/16 03:56:28;;;;;;;11.80;7.10;;;;;;;;;;5054949;28;20465;-73
2021/12/16 03:58:59;;;;;;;13.00;9.40;;;;;;;;;;5054954;28;20462;-73
2021/12/16 04:01:32;;;;;;;11.73;7.43;;;;;;;;;;5074522;28;20463;-73
2021/12/16 04:04:00;;;;;;;11.50;6.30;;;;;;;;;;5075139;28;20452;-73
2021/12/16 04:06:30;;;;;;;13.00;7.80;;;;;;;;;;5074489;28;21108;-73
2021/12/16 04:08:58;;;;;;;14.47;7.50;;;;;;;;;;5074614;28;20453;-73
2021/12/16 04:11:28;;;;;;;11.47;7.00;;;;;;;;;;5073644;28;20453;-73
2021/12/16 04:13:59;;;;;;;16.10;7.83;;;;;;;;;;5074799;28;20463;-73
2021/12/16 04:16:28;;;;;;;10.10;6.53;;;;;;;;;;5074879;28;20468;-72
2021/12/16 04:18:57;;;;;;;11.97;6.10;;;;;;;;;;5076365;28;20464;-73
2021/12/16 04:21:26;;;;;;;12.70;8.00;;;;;;;;;;5077828;28;20559;-71
2021/12/16 04:23:55;;;;;;;12.93;7.57;;;;;;;;;;5078639;28;20463;-73
2021/12/16 04:26:23;;;;;;;13.07;7.20;;;;;;;;;;5078014;28;20452;-72
2021/12/16 04:28:51;;;;;;;13.07;7.73;;;;;;;;;;5077948;28;20482;-73
2021/12/16 04:31:20;;;;;;;15.07;7.83;;;;;;;;;;5078172;28;20452;-72
2021/12/16 04:33:49;;;;;;;11.63;6.87;;;;;;;;;;5077226;28;20475;-73
2021/12/16 04:36:17;;;;;;;14.23;8.33;;;;;;;;;;5077615;28;20518;-72
2021/12/16 04:38:46;;;;;;;17.47;7.37;;;;;;;;;;5077695;28;20468;-73
2021/12/16 04:41:14;;;;;;;15.50;8.10;;;;;;;;;;5077913;28;20799;-73
2021/12/16 04:43:47;;;;;;;12.10;7.80;;;;;;;;;;5077653;28;20518;-73
2021/12/16 04:46:18;;;;;;;11.33;7.37;;;;;;;;;;5077885;28;20487;-73
2021/12/16 04:48:48;;;;;;;17.53;8.87;;;;;;;;;;5077496;28;20455;-73
2021/12/16 04:51:19;;;;;;;16.90;7.50;;;;;;;;;;5077420;28;20498;-73
2021/12/16 04:53:47;;;;;;;12.53;7.50;;;;;;;;;;5078043;28;20946;-72
2021/12/16 04:56:15;;;;;;;15.00;7.83;;;;;;;;;;5077424;28;20468;-73
2021/12/16 04:58:46;;;;;;;13.87;7.87;;;;;;;;;;5076523;28;20800;-73
2021/12/16 05:01:14;;;;;;;13.27;7.63;;;;;;;;;;5078339;28;20562;-73
2021/12/16 05:03:44;;;;;;;14.70;7.93;;;;;;;;;;5077170;28;20456;-73
2021/12/16 05:06:14;;;;;;;17.90;8.20;;;;;;;;;;5079274;28;20856;-72
2021/12/16 05:08:42;;;;;;;15.53;7.83;;;;;;;;;;5077828;28;20449;-73
2021/12/16 05:11:12;;;;;;;23.17;9.50;;;;;;;;;;5077149;28;20533;-73
2021/12/16 05:13:43;;;;;;;23.00;8.23;;;;;;;;;;5077621;28;20828;-73
2021/12/16 05:16:12;;;;;;;16.47;7.97;;;;;;;;;;5077323;28;20472;-73
2021/12/16 05:18:41;;;;;;;15.57;8.63;;;;;;;;;;5076575;28;20453;-73
2021/12/16 05:21:14;;;;;;;13.63;8.77;;;;;;;;;;5075361;28;21163;-72
2021/12/16 05:26:28;;;;;;;18.07;9.73;;;;;;;;;;5071538;28;20777;-73
2021/12/16 05:28:57;;;;;;;15.80;9.40;;;;;;;;;;5057294;28;20914;-73
2021/12/16 05:31:26;;;;;;;14.87;7.90;;;;;;;;;;5056859;28;20479;-73
2021/12/16 05:33:55;;;;;;;19.63;9.30;;;;;;;;;;5056973;28;20785;-73
2021/12/16 05:36:23;;;;;;;16.60;10.10;;;;;;;;;;5056542;28;20893;-73
2021/12/16 05:38:52;;;;;;;17.07;7.90;;;;;;;;;;5055875;28;20468;-73
2021/12/16 05:41:30;;;;;;;12.97;8.73;;;;;;;;;;5054783;28;20484;-73
2021/12/16 05:43:59;;;;;;;13.33;8.60;;;;;;;;;;5056086;28;20454;-73
2021/12/16 05:46:27;;;;;;;11.90;7.77;;;;;;;;;;5056566;28;20488;-73
2021/12/16 05:48:56;;;;;;;13.93;8.50;;;;;;;;;;5056707;28;20453;-73
2021/12/16 05:51:27;;;;;;;13.77;7.07;;;;;;;;;;5055575;28;20461;-73
2021/12/16 05:53:56;;;;;;;11.50;8.70;;;;;;;;;;5056087;28;20493;-73
2021/12/16 05:56:24;;;;;;;15.93;8.87;;;;;;;;;;5046594;28;20464;-73
2021/12/16 05:58:53;;;;;;;16.63;9.20;;;;;;;;;;5035493;28;20871;-73
2021/12/16 06:01:22;;;;;;;16.90;9.37;;;;;;;;;;5036129;28;20500;-73
2021/12/16 06:03:51;;;;;;;16.80;8.00;;;;;;;;;;5032344;28;20460;-72
2021/12/16 06:06:21;;;;;;;19.20;8.73;;;;;;;;;;5034089;28;20557;-73
2021/12/16 06:08:49;;;;;;;19.60;10.00;;;;;;;;;;5034386;28;20466;-73
2021/12/16 06:11:21;;;;;;;13.50;8.90;;;;;;;;;;5035182;28;20498;-72
2021/12/16 06:14:00;;;;;;;13.40;8.03;;;;;;;;;;5034026;28;20754;-73
2021/12/16 06:27:34;;;;;;;18.83;9.73;;;;;;;;;;5032260;28;20496;-72
2021/12/16 06:30:02;;;;;;;19.40;8.57;;;;;;;;;;5032225;28;20529;-71
2021/12/16 06:32:30;;;;;;;16.90;8.30;;;;;;;;;;5033125;28;21000;-73
2021/12/16 06:34:58;;;;;;;17.30;9.27;;;;;;;;;;5032698;28;20451;-72
2021/12/16 06:37:34;;;;;;;17.90;9.40;;;;;;;;;;5030780;28;20905;-73
2021/12/16 06:40:03;;;;;;;17.23;8.73;;;;;;;;;;5030927;28;20474;-73
2021/12/16 06:42:34;;;;;;;18.17;8.27;;;;;;;;;;5029605;28;20531;-73
2021/12/16 06:45:06;;;;;;;17.00;10.20;;;;;;;;;;5031281;28;20524;-73
2021/12/16 06:47:41;;;;;;;13.80;9.00;;;;;;;;;;5035513;28;20486;-73
2021/12/16 06:50:12;;;;;;;17.50;10.43;;;;;;;;;;5035423;28;20485;-73
2021/12/16 06:52:47;;;;;;;14.07;7.83;;;;;;;;;;5034868;28;20493;-73
2021/12/16 06:55:24;;;;;;;15.37;8.43;;;;;;;;;;5033377;28;20922;-73
2021/12/16 06:57:55;;;;;;;20.97;9.57;;;;;;;;;;5032535;28;20865;-72
2021/12/16 07:00:31;;;;;;;22.00;10.13;;;;;;;;;;5033435;28;20470;-72
2021/12/16 07:03:01;;;;;;;21.90;9.30;;;;;;;;;;5032174;28;20464;-72
2021/12/16 07:05:31;;;;;;;15.63;9.73;;;;;;;;;;5032249;28;20838;-72
2021/12/16 07:08:00;;;;;;;17.67;8.90;;;;;;;;;;5029784;28;20489;-73
2021/12/16 07:10:29;;;;;;;17.87;9.30;;;;;;;;;;5045808;28;20484;-72
2021/12/16 07:13:05;;;;;;;17.60;10.00;;;;;;;;;;5051887;28;20917;-73
2021/12/16 07:15:33;;;;;;;13.47;9.53;;;;;;;;;;5052809;28;20751;-72
2021/12/16 07:18:07;;;;;;;17.90;8.60;;;;;;;;;;5032690;28;20483;-73
2021/12/16 07:20:39;;;;;;;19.50;8.40;;;;;;;;;;5048467;28;20491;-73
2021/12/16 07:23:08;;;;;;;23.50;10.50;;;;;;;;;;5053899;28;20496;-72
2021/12/16 07:25:44;;;;;;;19.40;9.30;;;;;;;;;;5053087;28;20564;-73
2021/12/16 07:28:28;;;;;;;16.53;9.73;;;;;;;;;;5053497;28;20530;-73
2021/12/16 07:31:06;;;;;;;22.07;9.73;;;;;;;;;;5048586;28;20460;-73
2021/12/16 07:33:37;;;;;;;19.67;9.40;;;;;;;;;;5030729;28;20482;-73
2021/12/16 07:36:05;;;;;;;20.73;10.30;;;;;;;;;;5032919;28;21046;-72
2021/12/16 07:38:38;;;;;;;22.90;9.77;;;;;;;;;;5051824;28;20549;-73
2021/12/16 07:41:20;;;;;;;20.20;11.30;;;;;;;;;;5058875;28;21076;-71
2021/12/16 07:43:58;;;;;;;20.30;10.03;;;;;;;;;;5070040;28;20541;-72
2021/12/16 07:46:28;;;;;;;18.80;10.53;;;;;;;;;;5043755;28;20459;-72
2021/12/16 07:48:56;;;;;;;21.03;11.33;;;;;;;;;;5050758;28;20519;-73
2021/12/16 07:51:27;;;;;;;14.80;9.43;;;;;;;;;;5037994;28;21041;-73
2021/12/16 07:53:57;;;;;;;23.23;8.57;;;;;;;;;;5048094;28;20635;-72
2021/12/16 07:56:28;;;;;;;18.77;9.37;;;;;;;;;;5043008;28;20460;-74
2021/12/16 07:58:58;;;;;;;17.67;9.40;;;;;;;;;;5042750;28;20535;-73
2021/12/16 08:01:28;;;;;;;18.77;9.83;;;;;;;;;;5048788;28;20488;-74
2021/12/16 08:03:56;;;;;;;17.63;9.10;;;;;;;;;;5051789;28;21093;-73
2021/12/16 08:06:26;;;;;;;20.07;10.53;;;;;;;;;;5038678;28;20473;-73
2021/12/16 08:08:57;;;;;;;20.90;9.83;;;;;;;;;;5057004;28;20897;-73
2021/12/16 08:11:28;;;;;;;17.90;10.40;;;;;;;;;;5045100;28;20539;-73
2021/12/16 08:13:57;;;;;;;17.43;8.87;;;;;;;;;;5053135;28;20485;-72
2021/12/16 08:16:25;;;;;;;18.97;9.73;;;;;;;;;;5056578;28;20889;-73
2021/12/16 08:18:56;;;;;;;16.10;9.03;;;;;;;;;;5057561;28;20502;-74
2021/12/16 08:21:28;;;;;;;19.97;8.30;;;;;;;;;;5040303;28;20515;-74
2021/12/16 08:23:55;;;;;;;19.83;9.50;;;;;;;;;;5054842;28;20492;-74
2021/12/16 08:26:27;;;;;;;22.10;10.50;;;;;;;;;;5035846;28;20462;-74
2021/12/16 08:28:55;;;;;;;16.90;8.90;;;;;;;;;;5044907;28;20472;-75
2021/12/16 08:31:25;;;;;;;17.77;9.20;;;;;;;;;;5054240;28;20476;-73
2021/12/16 08:33:56;;;;;;;17.40;10.90;;;;;;;;;;5048935;28;20489;-74
2021/12/16 08:36:24;;;;;;;17.93;9.90;;;;;;;;;;5057115;28;20465;-73
2021/12/16 08:38:55;;;;;;;14.57;9.60;;;;;;;;;;5047518;28;20472;-74
2021/12/16 08:41:23;;;;;;;19.20;10.40;;;;;;;;;;5052299;28;20498;-73
2021/12/16 08:43:52;;;;;;;16.17;8.60;;;;;;;;;;5056455;28;20527;-73
2021/12/16 08:46:22;;;;;;;27.87;10.80;;;;;;;;;;5052381;28;20499;-71
2021/12/16 08:48:53;;;;;;;17.87;11.27;;;;;;;;;;5040463;28;20473;-73
2021/12/16 08:51:23;;;;;;;21.63;10.60;;;;;;;;;;5049728;28;20508;-73
2021/12/16 08:53:56;;;;;;;26.13;10.60;;;;;;;;;;5044721;28;20498;-75
2021/12/16 08:56:34;;;;;;;19.63;11.13;;;;;;;;;;5051044;28;20473;-74
2021/12/16 08:59:14;;;;;;;21.27;10.43;;;;;;;;;;5046856;28;20453;-73
2021/12/16 09:01:46;;;;;;;18.67;9.17;;;;;;;;;;5055679;28;20459;-74
2021/12/16 09:04:25;;;;;;;20.43;10.60;;;;;;;;;;5054135;28;20533;-73
2021/12/16 09:07:01;;;;;;;22.87;10.53;;;;;;;;;;5036494;28;20869;-73
2021/12/16 09:09:35;;;;;;;15.87;8.70;;;;;;;;;;5055882;28;20800;-74
2021/12/16 09:12:37;;;;;;;16.43;8.90;;;;;;;;;;5054268;28;20495;-73
2021/12/16 09:15:14;;;;;;;14.73;9.47;;;;;;;;;;5055274;28;20456;-73
2021/12/16 09:17:45;;;;;;;21.90;9.77;;;;;;;;;;5039292;28;20902;-73
2021/12/16 09:20:15;;;;;;;20.60;10.20;;;;;;;;;;5057240;28;20882;-74
2021/12/16 09:22:46;;;;;;;18.30;10.83;;;;;;;;;;5043033;28;20921;-74
2021/12/16 09:25:19;;;;;;;27.10;10.00;;;;;;;;;;5047044;28;20461;-74
2021/12/16 09:27:49;;;;;;;16.60;8.80;;;;;;;;;;5042147;28;20883;-74
2021/12/16 09:30:20;;;;;;;17.80;9.03;;;;;;;;;;5039818;28;20462;-74
2021/12/16 09:32:51;;;;;;;15.57;10.17;;;;;;;;;;5052485;28;20454;-73
2021/12/16 09:35:34;;;;;;;17.93;10.00;;;;;;;;;;5057535;28;20544;-74
2021/12/16 09:38:13;;;;;;;13.80;8.23;;;;;;;;;;5051160;28;20463;-75
2021/12/16 09:40:48;;;;;;;21.10;10.20;;;;;;;;;;5059690;28;20526;-74
2021/12/16 09:43:17;;;;;;;16.33;9.40;;;;;;;;;;5055308;28;20464;-73
2021/12/16 09:45:46;;;;;;;11.27;8.13;;;;;;;;;;5056528;28;20484;-73
2021/12/16 09:48:14;;;;;;;16.90;10.53;;;;;;;;;;5055130;28;20466;-73
2021/12/16 09:50:43;;;;;;;14.00;8.30;;;;;;;;;;5051479;28;20481;-73
2021/12/16 09:53:12;;;;;;;32.07;11.57;;;;;;;;;;5053964;28;20445;-72
2021/12/16 09:55:40;;;;;;;17.43;8.00;;;;;;;;;;5051846;28;20453;-73
2021/12/16 09:58:08;;;;;;;14.47;9.37;;;;;;;;;;5054181;28;20467;-73
2021/12/16 10:00:38;;;;;;;13.77;8.37;;;;;;;;;;5052138;28;20552;-72
2021/12/16 10:03:06;;;;;;;19.00;11.47;;;;;;;;;;5056872;28;20453;-73
2021/12/16 10:05:36;;;;;;;15.67;8.70;;;;;;;;;;5056121;28;20625;-73
2021/12/16 10:08:09;;;;;;;19.53;9.23;;;;;;;;;;5040273;28;20758;-72
2021/12/16 10:10:43;;;;;;;15.40;8.60;;;;;;;;;;5056031;28;20955;-74
2021/12/16 10:13:22;;;;;;;12.00;8.60;;;;;;;;;;5045511;28;20480;-72
2021/12/16 10:18:37;;;;;;;14.33;9.30;;;;;;;;;;5034786;28;20540;-73
2021/12/16 10:21:07;;;;;;;12.53;8.50;;;;;;;;;;5056703;28;20496;-73
2021/12/16 10:23:38;;;;;;;13.67;8.47;;;;;;;;;;5044670;28;20472;-73
2021/12/16 10:26:11;;;;;;;12.70;7.87;;;;;;;;;;5053023;28;20457;-73
2021/12/16 10:28:50;;;;;;;15.23;7.70;;;;;;;;;;5053005;28;20473;-74
2021/12/16 10:31:22;;;;;;;12.70;8.20;;;;;;;;;;5044122;28;20475;-73
2021/12/16 10:33:52;;;;;;;13.03;5.73;;;;;;;;;;5052205;28;20546;-73
2021/12/16 10:36:21;;;;;;;11.03;6.43;;;;;;;;;;5047865;28;20519;-73
2021/12/16 10:39:02;;;;;;;7.97;5.80;;;;;;;;;;5053840;28;20489;-75
2021/12/16 10:41:33;;;;;;;9.20;6.60;;;;;;;;;;5049470;28;20453;-73
2021/12/16 10:44:05;;;;;;;13.20;5.90;;;;;;;;;;5049550;28;20473;-73
2021/12/16 10:46:35;;;;;;;19.83;6.10;;;;;;;;;;5037732;28;20508;-72
2021/12/16 10:49:03;;;;;;;10.60;5.80;;;;;;;;;;5051353;28;21025;-73
2021/12/16 10:51:38;;;;;;;8.17;5.07;;;;;;;;;;5042748;28;20526;-75
2021/12/16 10:54:18;;;;;;;12.27;7.37;;;;;;;;;;5050958;28;20484;-72
2021/12/16 10:56:55;;;;;;;10.47;5.03;;;;;;;;;;5030336;28;20506;-73
2021/12/16 10:59:28;;;;;;;11.27;6.53;;;;;;;;;;5051888;28;20457;-73
2021/12/16 11:02:01;;;;;;;6.20;4.40;;;;;;;;;;5048754;28;21021;-72
2021/12/16 11:04:35;;;;;;;6.50;4.47;;;;;;;;;;5048835;28;20465;-73
2021/12/16 11:07:05;;;;;;;6.67;5.17;;;;;;;;;;5043489;28;20446;-72
2021/12/16 11:09:45;;;;;;;7.70;3.83;;;;;;;;;;5025451;28;20452;-72
2021/12/16 11:12:18;;;;;;;8.03;5.20;;;;;;;;;;5048445;28;21153;-74
2021/12/16 11:14:54;;;;;;;7.80;4.90;;;;;;;;;;5020191;28;20937;-72
2021/12/16 11:17:26;;;;;;;12.57;4.60;;;;;;;;;;5036276;28;20469;-72
2021/12/16 11:19:58;;;;;;;11.97;4.40;;;;;;;;;;5045696;28;20449;-74
2021/12/16 11:22:27;;;;;;;7.53;4.07;;;;;;;;;;5049318;28;20530;-73
2021/12/16 11:25:16;;;;;;;5.47;3.70;;;;;;;;;;5051479;28;20469;-73
2021/12/16 11:27:49;;;;;;;7.20;4.73;;;;;;;;;;5051538;28;21151;-73
2021/12/16 11:33:26;;;;;;;9.93;4.60;;;;;;;;;;5046980;28;20452;-73
2021/12/16 11:36:27;;;;;;;11.33;6.33;;;;;;;;;;5043266;28;20522;-74
2021/12/16 11:38:59;;;;;;;8.60;5.73;;;;;;;;;;5038758;28;20468;-72
2021/12/16 11:41:30;;;;;;;9.50;4.93;;;;;;;;;;5043909;28;20446;-72
2021/12/16 11:44:10;;;;;;;10.23;6.13;;;;;;;;;;5054830;28;20515;-73
2021/12/16 11:46:40;;;;;;;6.27;4.17;;;;;;;;;;5052253;28;20480;-73
2021/12/16 11:49:11;;;;;;;6.93;5.13;;;;;;;;;;5049321;28;20941;-73
2021/12/16 11:51:41;;;;;;;9.47;6.00;;;;;;;;;;5048953;28;20540;-74
2021/12/16 11:54:18;;;;;;;11.00;6.37;;;;;;;;;;5053188;28;20477;-72
2021/12/16 11:56:49;;;;;;;11.60;5.27;;;;;;;;;;5049013;28;20813;-73
2021/12/16 11:59:24;;;;;;;9.90;6.50;;;;;;;;;;5051524;28;20475;-73
2021/12/16 12:01:55;;;;;;;9.57;6.03;;;;;;;;;;5049292;28;20519;-73
2021/12/16 12:04:28;;;;;;;7.37;4.70;;;;;;;;;;5052675;28;20569;-73
2021/12/16 12:06:56;;;;;;;9.33;6.43;;;;;;;;;;5051997;28;20536;-73
2021/12/16 12:09:35;;;;;;;10.53;4.93;;;;;;;;;;5052410;28;20536;-73
2021/12/16 12:12:05;;;;;;;11.60;5.80;;;;;;;;;;5052650;28;20530;-73
2021/12/16 12:14:34;;;;;;;10.50;4.43;;;;;;;;;;5048622;28;20888;-73
2021/12/16 12:17:04;;;;;;;7.70;5.03;;;;;;;;;;5048040;28;20495;-73
2021/12/16 12:19:32;;;;;;;10.10;5.40;;;;;;;;;;5051385;28;20461;-72
2021/12/16 12:25:03;;;;;;;9.27;4.27;;;;;;;;;;5018416;28;20898;-73
2021/12/16 12:27:53;;;;;;;8.90;5.63;;;;;;;;;;5045676;28;20453;-74
2021/12/16 12:30:31;;;;;;;8.57;5.90;;;;;;;;;;5045516;28;20462;-74
2021/12/16 12:32:59;;;;;;;6.70;4.07;;;;;;;;;;5050736;28;20858;-73
2021/12/16 12:35:39;;;;;;;9.83;3.90;;;;;;;;;;5054757;28;20496;-73
2021/12/16 12:38:07;;;;;;;6.97;4.30;;;;;;;;;;5028196;28;20454;-73
2021/12/16 12:40:37;;;;;;;12.40;4.90;;;;;;;;;;5052745;28;20461;-73
2021/12/16 12:43:05;;;;;;;7.43;3.80;;;;;;;;;;5051847;28;21062;-72
2021/12/16 12:45:38;;;;;;;12.23;4.93;;;;;;;;;;5061058;28;20472;-72
2021/12/16 12:48:07;;;;;;;6.53;3.30;;;;;;;;;;5055176;28;20808;-73
2021/12/16 12:50:39;;;;;;;7.80;3.50;;;;;;;;;;5051143;28;21078;-72
2021/12/16 12:53:12;;;;;;;9.00;4.10;;;;;;;;;;5045814;28;20481;-72
2021/12/16 12:55:42;;;;;;;8.60;4.43;;;;;;;;;;5055812;28;20475;-73
2021/12/16 12:58:12;;;;;;;5.50;3.97;;;;;;;;;;5055053;28;20485;-73
2021/12/16 13:00:50;;;;;;;7.83;4.17;;;;;;;;;;5046044;28;20842;-75
2021/12/16 13:03:20;;;;;;;7.00;3.70;;;;;;;;;;5053156;28;20492;-73
2021/12/16 13:05:52;;;;;;;7.40;5.17;;;;;;;;;;5053074;28;20460;-72
2021/12/16 13:08:25;;;;;;;5.33;2.80;;;;;;;;;;5049740;28;20540;-73
2021/12/16 13:10:53;;;;;;;11.37;3.53;;;;;;;;;;5047794;28;20455;-74
2021/12/16 13:13:33;;;;;;;6.80;3.57;;;;;;;;;;5054299;28;20567;-73
2021/12/16 13:16:23;;;;;;;7.53;3.30;;;;;;;;;;5054107;28;20563;-74
2021/12/16 13:27:27;;;;;;;6.30;3.47;;;;;;;;;;4969161;28;20723;-74
2021/12/16 13:30:16;;;;;;;6.03;3.37;;;;;;;;;;4975281;28;20539;-72
2021/12/16 13:36:25;;;;;;;3.00;1.50;;;;;;;;;;5049114;28;20489;-73
2021/12/16 13:42:12;;;;;;;6.23;2.70;;;;;;;;;;5031913;28;20448;-73
2021/12/16 13:44:47;;;;;;;5.40;2.13;;;;;;;;;;5049632;28;20465;-74
2021/12/16 13:47:48;;;;;;;12.53;4.00;;;;;;;;;;5054501;28;20505;-72
2021/12/16 14:02:32;;;;;;;3.83;2.53;;;;;;;;;;5037864;28;20454;-73
2021/12/16 14:05:17;;;;;;;2.90;1.80;;;;;;;;;;5047286;28;20457;-72
2021/12/16 14:07:58;;;;;;;4.03;2.83;;;;;;;;;;5053130;28;20533;-73
2021/12/16 14:10:34;;;;;;;8.63;3.67;;;;;;;;;;5036669;28;20472;-73
2021/12/16 14:16:31;;;;;;;6.50;2.53;;;;;;;;;;5048636;28;20494;-73
2021/12/16 14:41:49;;;;;;;5.30;2.80;;;;;;;;;;5046334;28;20471;-74
2021/12/16 14:45:13;;;;;;;3.90;2.57;;;;;;;;;;5049934;28;21064;-74
2021/12/16 14:47:16;;;;;;;4.90;3.30;;;;;;;;;;5050374;28;21121;-72
2021/12/16 14:49:51;;;;;;;5.87;4.50;;;;;;;;;;5051802;28;20660;-72
2021/12/16 14:52:20;;;;;;;5.07;2.73;;;;;;;;;;5044507;28;20458;-72
2021/12/16 14:54:54;;;;;;;7.13;3.40;;;;;;;;;;5036328;28;20478;-73
2021/12/16 14:57:28;;;;;;;9.03;3.63;;;;;;;;;;5046001;28;20462;-73
2021/12/16 15:00:00;;;;;;;5.87;2.80;;;;;;;;;;5046693;28;20468;-73
2021/12/16 15:05:37;;;;;;;3.57;1.93;;;;;;;;;;5051998;28;20461;-73
2021/12/16 15:08:26;;;;;;;8.37;6.10;;;;;;;;;;5045412;28;20465;-73
2021/12/16 15:14:20;;;;;;;7.63;3.57;;;;;;;;;;4952524;28;20451;-74
2021/12/16 15:37:29;;;;;;;7.83;4.00;;;;;;;;;;5028284;28;21081;-72
2021/12/16 15:43:21;;;;;;;9.60;3.67;;;;;;;;;;4948203;28;20869;-73
2021/12/16 15:46:04;;;;;;;;;;;;;;;;;;;;;
2021/12/16 15:48:35;;;;;;;6.80;3.20;;;;;;;;;;5020284;28;20447;-72
2021/12/16 15:51:12;;;;;;;5.33;2.00;;;;;;;;;;5024340;28;20459;-72
2021/12/16 15:53:44;;;;;;;10.43;4.03;;;;;;;;;;5032614;28;20541;-72
2021/12/16 15:56:28;;;;;;;15.13;4.53;;;;;;;;;;5025600;28;20586;-73
2021/12/16 15:59:34;;;;;;;9.73;4.80;;;;;;;;;;5027062;28;20454;-72
2021/12/16 16:02:11;;;;;;;11.07;4.00;;;;;;;;;;5024568;28;20537;-72
2021/12/16 16:04:40;;;;;;;23.93;11.20;;;;;;;;;;5023872;28;20547;-73
2021/12/16 16:07:09;;;;;;;7.63;2.80;;;;;;;;;;5015813;28;20529;-73
2021/12/16 16:09:52;;;;;;;8.73;2.70;;;;;;;;;;5028887;28;20460;-72
2021/12/16 16:12:24;;;;;;;5.73;3.43;;;;;;;;;;5032978;28;20520;-72
2021/12/16 16:15:05;;;;;;;6.40;3.33;;;;;;;;;;5036126;28;20450;-72
2021/12/16 16:18:11;;;;;;;16.70;5.60;;;;;;;;;;5031714;28;20458;-73
2021/12/16 16:32:57;;;;;;;11.03;5.40;;;;;;;;;;5038348;28;20454;-73
2021/12/16 16:38:34;;;;;;;6.70;3.57;;;;;;;;;;5029279;28;20447;-74
2021/12/16 16:41:05;;;;;;;5.37;3.00;;;;;;;;;;5015338;28;20463;-73
2021/12/16 16:43:37;;;;;;;9.93;3.60;;;;;;;;;;5028719;28;20461;-73
2021/12/16 16:46:15;;;;;;;7.53;4.00;;;;;;;;;;5035068;28;20812;-72
2021/12/16 16:49:03;;;;;;;12.30;3.30;;;;;;;;;;5036504;28;20466;-73
2021/12/16 16:51:50;;;;;;;11.10;4.90;;;;;;;;;;5034964;28;20532;-73
2021/12/16 16:54:37;;;;;;;8.80;3.17;;;;;;;;;;5026871;28;20577;-71
2021/12/16 16:57:08;;;;;;;8.97;3.90;;;;;;;;;;5037422;28;20499;-73
2021/12/16 16:59:45;;;;;;;6.53;3.00;;;;;;;;;;5037096;28;20482;-73
2021/12/16 17:02:24;;;;;;;9.70;2.77;;;;;;;;;;5036581;28;20840;-73
2021/12/16 17:04:57;;;;;;;6.13;4.07;;;;;;;;;;5036225;28;20883;-73
2021/12/16 17:07:26;;;;;;;6.40;3.37;;;;;;;;;;5036736;28;20519;-73
2021/12/16 17:10:04;;;;;;;11.73;4.07;;;;;;;;;;5036634;28;20936;-74
2021/12/16 17:12:36;;;;;;;6.37;3.03;;;;;;;;;;5034313;28;20483;-73
2021/12/16 17:15:29;;;;;;;11.07;4.50;;;;;;;;;;5035083;28;20516;-73
2021/12/16 17:17:58;;;;;;;6.53;3.40;;;;;;;;;;5034747;28;20502;-73
2021/12/16 17:20:26;;;;;;;9.13;4.87;;;;;;;;;;5035215;28;20451;-73
2021/12/16 17:22:58;;;;;;;9.13;4.40;;;;;;;;;;5037351;28;20451;-73
2021/12/16 17:34:52;;;;;;;11.23;4.50;;;;;;;;;;4894768;28;21144;-73
2021/12/16 17:37:22;;;;;;;7.03;2.73;;;;;;;;;;5008942;28;20489;-72
2021/12/16 17:39:51;;;;;;;8.43;2.87;;;;;;;;;;5037015;28;20455;-73
2021/12/16 17:42:27;;;;;;;6.00;2.77;;;;;;;;;;5035799;28;20454;-73
2021/12/16 17:44:57;;;;;;;5.73;3.27;;;;;;;;;;5036278;28;20938;-73
2021/12/16 17:47:37;;;;;;;9.17;4.00;;;;;;;;;;5036858;28;20458;-73
2021/12/16 17:50:11;;;;;;;9.67;3.87;;;;;;;;;;5035292;28;20454;-74
2021/12/16 17:52:48;;;;;;;7.63;3.20;;;;;;;;;;5036684;28;20731;-72
2021/12/16 17:55:22;;;;;;;14.37;5.40;;;;;;;;;;5036321;28;20492;-73
2021/12/16 17:57:53;;;;;;;4.80;2.80;;;;;;;;;;5035249;28;20507;-72
2021/12/16 18:00:31;;;;;;;7.63;3.80;;;;;;;;;;5036176;28;20569;-73
2021/12/16 18:03:06;;;;;;;8.23;3.73;;;;;;;;;;5034794;28;20867;-73
2021/12/16 18:05:43;;;;;;;4.63;2.73;;;;;;;;;;5036581;28;20727;-73
2021/12/16 18:08:21;;;;;;;12.23;4.17;;;;;;;;;;5034784;28;20460;-72
2021/12/16 18:10:57;;;;;;;5.07;3.50;;;;;;;;;;5036357;28;20465;-74
2021/12/16 18:13:36;;;;;;;6.83;2.70;;;;;;;;;;5033841;28;20769;-74
2021/12/16 18:16:08;;;;;;;6.50;3.97;;;;;;;;;;5035986;28;20485;-73
2021/12/16 18:18:50;;;;;;;6.43;3.13;;;;;;;;;;5035941;28;20458;-73
2021/12/16 18:21:32;;;;;;;7.53;4.03;;;;;;;;;;5037914;28;20466;-74
2021/12/16 18:24:08;;;;;;;14.33;4.30;;;;;;;;;;5036804;28;20484;-73
2021/12/16 18:26:53;;;;;;;5.73;3.23;;;;;;;;;;5035242;28;20460;-73
2021/12/16 18:29:22;;;;;;;6.63;3.67;;;;;;;;;;5015844;28;20502;-73
2021/12/16 18:31:59;;;;;;;8.77;2.70;;;;;;;;;;5017488;28;20734;-74
2021/12/16 18:34:32;;;;;;;7.53;3.50;;;;;;;;;;5016711;28;20467;-74
2021/12/16 18:37:05;;;;;;;7.20;4.10;;;;;;;;;;5014624;28;20479;-73
2021/12/16 18:39:38;;;;;;;8.67;4.57;;;;;;;;;;5015188;28;20743;-73
2021/12/16 18:42:29;;;;;;;5.40;2.80;;;;;;;;;;5016330;28;20474;-74
2021/12/16 18:45:02;;;;;;;11.40;3.80;;;;;;;;;;5014160;28;20474;-73
2021/12/16 18:47:44;;;;;;;16.23;4.67;;;;;;;;;;5022745;28;20466;-74
2021/12/16 18:50:30;;;;;;;7.00;3.40;;;;;;;;;;5017185;28;20578;-74